sensor_id;sensor_type;location;lat;lon;timestamp;temperature;humidity
28071;DHT22;15383;48.408;9.968;2023-09-19T03:02:22;20.00;94.60
28071;DHT22;15383;48.408;9.968;2023-09-19T03:04:49;20.00;94.60
28071;DHT22;15383;48.408;9.968;2023-09-19T03:07:16;20.00;94.60
28071;DHT22;15383;48.408;9.968;2023-09-19T03:09:42;20.10;94.70
28071;DHT22;15383;48.408;9.968;2023-09-19T03:12:08;20.00;94.60
28071;DHT22;15383;48.408;9.968;2023-09-19T03:14:34;20.00;94.60
28071;DHT22;15383;48.408;9.968;2023-09-19T03:17:02;20.00;94.60
28071;DHT22;15383;48.408;9.968;2023-09-19T03:19:30;20.00;94.60
28071;DHT22;15383;48.408;9.968;2023-09-19T03:21:59;20.10;94.70
28071;DHT22;15383;48.408;9.968;2023-09-19T03:24:25;20.00;94.70
28071;DHT22;15383;48.408;9.968;2023-09-19T03:26:51;20.00;94.70
28071;DHT22;15383;48.408;9.968;2023-09-19T03:29:17;20.00;94.70
28071;DHT22;15383;48.408;9.968;2023-09-19T03:31:43;20.00;94.70
28071;DHT22;15383;48.408;9.968;2023-09-19T03:34:09;20.00;94.70
28071;DHT22;15383;48.408;9.968;2023-09-19T03:36:35;20.00;94.60
28071;DHT22;15383;48.408;9.968;2023-09-19T03:39:01;20.00;94.60
28071;DHT22;15383;48.408;9.968;2023-09-19T03:41:30;20.00;94.60
28071;DHT22;15383;48.408;9.968;2023-09-19T03:43:56;20.00;94.60
28071;DHT22;15383;48.408;9.968;2023-09-19T03:46:22;20.00;94.60
28071;DHT22;15383;48.408;9.968;2023-09-19T03:48:48;20.00;94.60
28071;DHT22;15383;48.408;9.968;2023-09-19T03:51:13;20.00;94.60
28071;DHT22;15383;48.408;9.968;2023-09-19T03:53:39;20.00;94.60
28071;DHT22;15383;48.408;9.968;2023-09-19T03:56:04;20.00;95.00
28071;DHT22;15383;48.408;9.968;2023-09-19T03:58:30;20.00;94.60
28071;DHT22;15383;48.408;9.968;2023-09-19T04:00:56;20.00;94.60
28071;DHT22;15383;48.408;9.968;2023-09-19T04:03:23;20.00;94.60
28071;DHT22;15383;48.408;9.968;2023-09-19T04:05:49;20.00;95.00
28071;DHT22;15383;48.408;9.968;2023-09-19T04:08:14;20.00;94.60
28071;DHT22;15383;48.408;9.968;2023-09-19T04:10:43;20.00;94.60
28071;DHT22;15383;48.408;9.968;2023-09-19T04:13:10;20.00;94.90
28071;DHT22;15383;48.408;9.968;2023-09-19T04:15:36;20.00;94.60
28071;DHT22;15383;48.408;9.968;2023-09-19T04:18:03;20.00;94.60
28071;DHT22;15383;48.408;9.968;2023-09-19T04:20:29;20.00;94.60
28071;DHT22;15383;48.408;9.968;2023-09-19T04:22:54;20.00;94.90
28071;DHT22;15383;48.408;9.968;2023-09-19T04:25:20;20.00;94.60
28071;DHT22;15383;48.408;9.968;2023-09-19T04:27:46;20.00;94.60
28071;DHT22;15383;48.408;9.968;2023-09-19T04:30:13;20.00;94.60
28071;DHT22;15383;48.408;9.968;2023-09-19T04:32:40;20.00;94.60
28071;DHT22;15383;48.408;9.968;2023-09-19T04:35:07;20.00;94.60
28071;DHT22;15383;48.408;9.968;2023-09-19T04:37:37;20.00;94.60
28071;DHT22;15383;48.408;9.968;2023-09-19T04:40:04;20.00;94.60
28071;DHT22;15383;48.408;9.968;2023-09-19T04:42:31;20.00;94.60
28071;DHT22;15383;48.408;9.968;2023-09-19T04:44:57;20.00;94.60
28071;DHT22;15383;48.408;9.968;2023-09-19T04:47:25;20.00;94.60
28071;DHT22;15383;48.408;9.968;2023-09-19T04:49:51;20.00;94.60
28071;DHT22;15383;48.408;9.968;2023-09-19T04:52:17;20.00;94.60
28071;DHT22;15383;48.408;9.968;2023-09-19T04:54:42;20.00;94.60
28071;DHT22;15383;48.408;9.968;2023-09-19T04:57:08;20.00;94.60
28071;DHT22;15383;48.408;9.968;2023-09-19T04:59:34;20.00;94.60
28071;DHT22;15383;48.408;9.968;2023-09-19T05:01:59;20.00;94.60
28071;DHT22;15383;48.408;9.968;2023-09-19T05:04:25;20.00;94.60
28071;DHT22;15383;48.408;9.968;2023-09-19T05:06:50;20.00;94.60
28071;DHT22;15383;48.408;9.968;2023-09-19T05:09:16;20.00;94.60
28071;DHT22;15383;48.408;9.968;2023-09-19T05:11:45;20.00;94.60
28071;DHT22;15383;48.408;9.968;2023-09-19T05:14:11;20.00;94.90
28071;DHT22;15383;48.408;9.968;2023-09-19T05:16:37;20.00;94.50
28071;DHT22;15383;48.408;9.968;2023-09-19T05:19:03;20.00;94.50
28071;DHT22;15383;48.408;9.968;2023-09-19T05:21:32;20.00;94.50
28071;DHT22;15383;48.408;9.968;2023-09-19T05:23:58;20.00;94.50
28071;DHT22;15383;48.408;9.968;2023-09-19T05:26:24;20.00;94.50
28071;DHT22;15383;48.408;9.968;2023-09-19T05:28:50;20.00;94.50
28071;DHT22;15383;48.408;9.968;2023-09-19T05:31:18;20.00;94.50
28071;DHT22;15383;48.408;9.968;2023-09-19T05:33:44;20.00;94.50
28071;DHT22;15383;48.408;9.968;2023-09-19T05:36:09;20.00;94.50
28071;DHT22;15383;48.408;9.968;2023-09-19T05:38:37;19.90;94.50
28071;DHT22;15383;48.408;9.968;2023-09-19T05:41:06;20.00;94.50
28071;DHT22;15383;48.408;9.968;2023-09-19T05:43:32;20.00;94.50
28071;DHT22;15383;48.408;9.968;2023-09-19T05:46:00;20.00;94.50
28071;DHT22;15383;48.408;9.968;2023-09-19T05:48:25;20.00;94.50
28071;DHT22;15383;48.408;9.968;2023-09-19T05:50:51;20.00;94.50
28071;DHT22;15383;48.408;9.968;2023-09-19T05:53:17;19.90;94.50
28071;DHT22;15383;48.408;9.968;2023-09-19T05:55:43;20.00;94.50
28071;DHT22;15383;48.408;9.968;2023-09-19T05:58:09;19.90;94.50
28071;DHT22;15383;48.408;9.968;2023-09-19T06:00:35;20.00;94.50
28071;DHT22;15383;48.408;9.968;2023-09-19T06:03:02;20.00;94.50
28071;DHT22;15383;48.408;9.968;2023-09-19T06:05:28;19.90;94.50
28071;DHT22;15383;48.408;9.968;2023-09-19T06:07:55;20.00;94.50
28071;DHT22;15383;48.408;9.968;2023-09-19T06:10:21;19.90;94.50
28071;DHT22;15383;48.408;9.968;2023-09-19T06:12:48;20.00;94.50
28071;DHT22;15383;48.408;9.968;2023-09-19T06:15:15;19.90;94.50
28071;DHT22;15383;48.408;9.968;2023-09-19T06:17:43;19.90;94.50
28071;DHT22;15383;48.408;9.968;2023-09-19T06:20:08;20.00;94.50
28071;DHT22;15383;48.408;9.968;2023-09-19T06:22:44;20.00;94.50
28071;DHT22;15383;48.408;9.968;2023-09-19T06:25:12;20.00;94.50
28071;DHT22;15383;48.408;9.968;2023-09-19T06:27:52;20.00;94.50
28071;DHT22;15383;48.408;9.968;2023-09-19T06:30:20;20.00;94.50
28071;DHT22;15383;48.408;9.968;2023-09-19T06:32:49;20.00;94.50
28071;DHT22;15383;48.408;9.968;2023-09-19T06:35:15;20.00;94.50
28071;DHT22;15383;48.408;9.968;2023-09-19T06:37:42;20.00;94.80
28071;DHT22;15383;48.408;9.968;2023-09-19T06:40:10;20.00;94.50
28071;DHT22;15383;48.408;9.968;2023-09-19T06:42:44;20.00;94.50
28071;DHT22;15383;48.408;9.968;2023-09-19T06:45:14;20.00;94.50
28071;DHT22;15383;48.408;9.968;2023-09-19T06:47:48;20.00;94.50
28071;DHT22;15383;48.408;9.968;2023-09-19T06:50:23;20.00;94.50
28071;DHT22;15383;48.408;9.968;2023-09-19T06:52:53;20.00;94.50
28071;DHT22;15383;48.408;9.968;2023-09-19T06:55:20;20.00;94.50
28071;DHT22;15383;48.408;9.968;2023-09-19T06:57:46;20.00;94.50
28071;DHT22;15383;48.408;9.968;2023-09-19T07:00:13;20.00;94.50
28071;DHT22;15383;48.408;9.968;2023-09-19T07:03:07;20.00;94.50
28071;DHT22;15383;48.408;9.968;2023-09-19T07:05:34;20.00;94.50
28071;DHT22;15383;48.408;9.968;2023-09-19T07:08:05;20.00;94.50
28071;DHT22;15383;48.408;9.968;2023-09-19T07:10:34;20.00;94.50
28071;DHT22;15383;48.408;9.968;2023-09-19T07:13:02;20.00;94.50
28071;DHT22;15383;48.408;9.968;2023-09-19T07:15:32;20.00;94.50
28071;DHT22;15383;48.408;9.968;2023-09-19T07:18:05;20.00;94.50
28071;DHT22;15383;48.408;9.968;2023-09-19T07:20:31;20.00;94.50
28071;DHT22;15383;48.408;9.968;2023-09-19T07:22:58;20.00;94.50
28071;DHT22;15383;48.408;9.968;2023-09-19T07:25:30;20.00;94.50
28071;DHT22;15383;48.408;9.968;2023-09-19T07:27:57;20.00;94.50
28071;DHT22;15383;48.408;9.968;2023-09-19T07:30:26;20.00;94.50
28071;DHT22;15383;48.408;9.968;2023-09-19T07:32:52;20.00;94.50
28071;DHT22;15383;48.408;9.968;2023-09-19T07:35:18;20.00;94.50
28071;DHT22;15383;48.408;9.968;2023-09-19T07:37:48;20.00;94.80
28071;DHT22;15383;48.408;9.968;2023-09-19T07:40:18;20.00;94.50
28071;DHT22;15383;48.408;9.968;2023-09-19T07:42:49;20.00;94.50
28071;DHT22;15383;48.408;9.968;2023-09-19T07:45:16;20.00;94.50
28071;DHT22;15383;48.408;9.968;2023-09-19T07:47:49;20.00;94.50
28071;DHT22;15383;48.408;9.968;2023-09-19T07:50:20;20.00;94.50
28071;DHT22;15383;48.408;9.968;2023-09-19T07:52:47;20.00;94.50
28071;DHT22;15383;48.408;9.968;2023-09-19T07:55:13;20.00;94.50
28071;DHT22;15383;48.408;9.968;2023-09-19T07:57:42;20.00;94.50
28071;DHT22;15383;48.408;9.968;2023-09-19T08:00:09;20.00;94.50
28071;DHT22;15383;48.408;9.968;2023-09-19T08:02:39;20.00;94.50
28071;DHT22;15383;48.408;9.968;2023-09-19T08:05:06;20.00;94.50
28071;DHT22;15383;48.408;9.968;2023-09-19T08:07:32;20.00;94.50
28071;DHT22;15383;48.408;9.968;2023-09-19T08:09:58;20.00;94.50
28071;DHT22;15383;48.408;9.968;2023-09-19T08:12:24;20.00;94.50
28071;DHT22;15383;48.408;9.968;2023-09-19T08:14:50;20.00;94.50
28071;DHT22;15383;48.408;9.968;2023-09-19T08:17:16;20.00;94.50
28071;DHT22;15383;48.408;9.968;2023-09-19T08:19:42;20.00;94.50
28071;DHT22;15383;48.408;9.968;2023-09-19T08:22:10;20.30;94.50
28071;DHT22;15383;48.408;9.968;2023-09-19T08:24:36;20.00;94.50
28071;DHT22;15383;48.408;9.968;2023-09-19T08:27:03;20.00;94.40
28071;DHT22;15383;48.408;9.968;2023-09-19T08:29:30;20.00;94.40
28071;DHT22;15383;48.408;9.968;2023-09-19T08:31:59;20.10;94.50
28071;DHT22;15383;48.408;9.968;2023-09-19T08:34:25;20.00;94.40
28071;DHT22;15383;48.408;9.968;2023-09-19T08:36:55;20.00;94.40
28071;DHT22;15383;48.408;9.968;2023-09-19T08:39:24;20.00;94.40
28071;DHT22;15383;48.408;9.968;2023-09-19T08:42:00;20.10;94.50
28071;DHT22;15383;48.408;9.968;2023-09-19T08:44:27;20.00;94.40
28071;DHT22;15383;48.408;9.968;2023-09-19T08:47:10;20.10;94.50
28071;DHT22;15383;48.408;9.968;2023-09-19T08:52:32;20.00;94.40
28071;DHT22;15383;48.408;9.968;2023-09-19T08:55:02;20.10;94.50
28071;DHT22;15383;48.408;9.968;2023-09-19T08:57:36;20.10;94.50
28071;DHT22;15383;48.408;9.968;2023-09-19T09:00:07;20.00;94.40
28071;DHT22;15383;48.408;9.968;2023-09-19T09:02:40;20.10;94.50
28071;DHT22;15383;48.408;9.968;2023-09-19T09:05:09;20.10;94.50
28071;DHT22;15383;48.408;9.968;2023-09-19T09:07:40;20.10;94.40
28071;DHT22;15383;48.408;9.968;2023-09-19T09:10:08;20.10;94.40
28071;DHT22;15383;48.408;9.968;2023-09-19T09:12:35;20.10;94.40
28071;DHT22;15383;48.408;9.968;2023-09-19T09:15:06;20.10;94.40
28071;DHT22;15383;48.408;9.968;2023-09-19T09:17:37;20.10;94.40
28071;DHT22;15383;48.408;9.968;2023-09-19T09:20:03;20.10;94.40
28071;DHT22;15383;48.408;9.968;2023-09-19T09:22:30;20.10;94.40
28071;DHT22;15383;48.408;9.968;2023-09-19T09:24:57;20.10;94.40
28071;DHT22;15383;48.408;9.968;2023-09-19T09:27:24;20.10;94.80
28071;DHT22;15383;48.408;9.968;2023-09-19T09:29:51;20.10;94.40
28071;DHT22;15383;48.408;9.968;2023-09-19T09:32:24;20.10;94.40
28071;DHT22;15383;48.408;9.968;2023-09-19T09:34:54;20.10;94.40
28071;DHT22;15383;48.408;9.968;2023-09-19T09:37:20;20.10;94.40
28071;DHT22;15383;48.408;9.968;2023-09-19T09:42:35;20.10;94.40
28071;DHT22;15383;48.408;9.968;2023-09-19T09:45:19;20.10;94.40
28071;DHT22;15383;48.408;9.968;2023-09-19T09:48:03;20.10;94.40
28071;DHT22;15383;48.408;9.968;2023-09-19T09:50:32;20.10;94.40
28071;DHT22;15383;48.408;9.968;2023-09-19T09:53:34;20.10;94.40
28071;DHT22;15383;48.408;9.968;2023-09-19T09:56:08;20.10;94.30
28071;DHT22;15383;48.408;9.968;2023-09-19T09:58:49;20.10;94.30
28071;DHT22;15383;48.408;9.968;2023-09-19T10:01:15;20.10;94.30
28071;DHT22;15383;48.408;9.968;2023-09-19T10:03:42;20.10;94.30
28071;DHT22;15383;48.408;9.968;2023-09-19T10:06:17;20.10;94.30
28071;DHT22;15383;48.408;9.968;2023-09-19T10:09:01;20.10;94.30
28071;DHT22;15383;48.408;9.968;2023-09-19T10:12:08;20.10;94.30
28071;DHT22;15383;48.408;9.968;2023-09-19T10:14:37;20.10;94.30
28071;DHT22;15383;48.408;9.968;2023-09-19T10:17:05;20.10;94.30
28071;DHT22;15383;48.408;9.968;2023-09-19T10:19:46;20.10;94.30
28071;DHT22;15383;48.408;9.968;2023-09-19T10:22:12;20.10;94.30
28071;DHT22;15383;48.408;9.968;2023-09-19T10:24:40;20.10;94.30
28071;DHT22;15383;48.408;9.968;2023-09-19T10:27:07;20.10;94.30
28071;DHT22;15383;48.408;9.968;2023-09-19T10:29:39;20.10;94.20
28071;DHT22;15383;48.408;9.968;2023-09-19T10:32:06;20.10;94.20
28071;DHT22;15383;48.408;9.968;2023-09-19T10:34:36;20.20;94.40
28071;DHT22;15383;48.408;9.968;2023-09-19T10:37:02;20.10;94.20
28071;DHT22;15383;48.408;9.968;2023-09-19T10:39:32;20.20;94.20
28071;DHT22;15383;48.408;9.968;2023-09-19T10:42:06;20.20;94.20
28071;DHT22;15383;48.408;9.968;2023-09-19T10:44:37;20.20;94.20
28071;DHT22;15383;48.408;9.968;2023-09-19T10:47:07;20.10;94.10
28071;DHT22;15383;48.408;9.968;2023-09-19T10:49:34;20.20;94.20
28071;DHT22;15383;48.408;9.968;2023-09-19T10:52:01;20.20;94.20
28071;DHT22;15383;48.408;9.968;2023-09-19T10:54:31;20.20;94.20
28071;DHT22;15383;48.408;9.968;2023-09-19T10:57:02;20.20;94.10
28071;DHT22;15383;48.408;9.968;2023-09-19T10:59:30;20.20;94.10
28071;DHT22;15383;48.408;9.968;2023-09-19T11:02:00;20.20;94.10
28071;DHT22;15383;48.408;9.968;2023-09-19T11:04:40;20.20;94.10
28071;DHT22;15383;48.408;9.968;2023-09-19T11:09:55;20.20;94.10
28071;DHT22;15383;48.408;9.968;2023-09-19T11:16:02;20.20;94.40
28071;DHT22;15383;48.408;9.968;2023-09-19T11:17:58;20.20;94.00
28071;DHT22;15383;48.408;9.968;2023-09-19T11:20:25;20.20;94.00
28071;DHT22;15383;48.408;9.968;2023-09-19T11:30:47;20.20;94.00
28071;DHT22;15383;48.408;9.968;2023-09-19T11:33:29;20.20;94.00
28071;DHT22;15383;48.408;9.968;2023-09-19T11:36:14;20.20;94.00
28071;DHT22;15383;48.408;9.968;2023-09-19T11:46:30;20.30;94.00
28071;DHT22;15383;48.408;9.968;2023-09-19T11:49:05;20.20;94.00
28071;DHT22;15383;48.408;9.968;2023-09-19T11:51:41;20.30;94.00
28071;DHT22;15383;48.408;9.968;2023-09-19T11:54:11;20.30;94.00
28071;DHT22;15383;48.408;9.968;2023-09-19T11:56:45;20.30;94.00
28071;DHT22;15383;48.408;9.968;2023-09-19T11:59:11;20.30;94.00
28071;DHT22;15383;48.408;9.968;2023-09-19T12:01:43;20.30;94.00
28071;DHT22;15383;48.408;9.968;2023-09-19T12:04:17;20.30;94.00
28071;DHT22;15383;48.408;9.968;2023-09-19T12:06:43;20.30;94.00
28071;DHT22;15383;48.408;9.968;2023-09-19T12:09:22;20.30;94.00
28071;DHT22;15383;48.408;9.968;2023-09-19T12:11:48;20.30;94.00
28071;DHT22;15383;48.408;9.968;2023-09-19T12:14:25;20.30;93.90
28071;DHT22;15383;48.408;9.968;2023-09-19T12:16:55;20.30;93.90
28071;DHT22;15383;48.408;9.968;2023-09-19T12:19:22;20.30;93.90
28071;DHT22;15383;48.408;9.968;2023-09-19T12:21:57;20.30;93.90
28071;DHT22;15383;48.408;9.968;2023-09-19T12:24:26;20.30;93.90
28071;DHT22;15383;48.408;9.968;2023-09-19T12:26:59;20.30;93.90
28071;DHT22;15383;48.408;9.968;2023-09-19T12:29:29;20.30;93.80
28071;DHT22;15383;48.408;9.968;2023-09-19T12:31:57;20.30;93.80
28071;DHT22;15383;48.408;9.968;2023-09-19T12:34:28;20.30;93.80
28071;DHT22;15383;48.408;9.968;2023-09-19T12:39:45;20.30;93.80
28071;DHT22;15383;48.408;9.968;2023-09-19T12:42:20;20.30;93.80
28071;DHT22;15383;48.408;9.968;2023-09-19T12:44:48;20.30;93.80
28071;DHT22;15383;48.408;9.968;2023-09-19T12:47:18;20.30;93.80
28071;DHT22;15383;48.408;9.968;2023-09-19T12:52:42;20.30;93.90
28071;DHT22;15383;48.408;9.968;2023-09-19T12:55:25;20.30;93.80
28071;DHT22;15383;48.408;9.968;2023-09-19T12:58:13;20.30;93.80
28071;DHT22;15383;48.408;9.968;2023-09-19T13:00:44;20.30;93.80
28071;DHT22;15383;48.408;9.968;2023-09-19T13:06:01;20.30;93.70
28071;DHT22;15383;48.408;9.968;2023-09-19T13:09:07;20.30;93.70
28071;DHT22;15383;48.408;9.968;2023-09-19T13:11:37;20.40;93.70
28071;DHT22;15383;48.408;9.968;2023-09-19T13:14:20;20.40;93.70
28071;DHT22;15383;48.408;9.968;2023-09-19T13:17:05;20.40;93.70
28071;DHT22;15383;48.408;9.968;2023-09-19T13:19:47;20.40;93.70
28071;DHT22;15383;48.408;9.968;2023-09-19T13:22:45;20.40;93.70
28071;DHT22;15383;48.408;9.968;2023-09-19T13:25:24;20.40;93.60
28071;DHT22;15383;48.408;9.968;2023-09-19T13:27:51;20.40;93.60
28071;DHT22;15383;48.408;9.968;2023-09-19T13:30:18;20.40;93.60
28071;DHT22;15383;48.408;9.968;2023-09-19T13:32:44;20.40;93.60
28071;DHT22;15383;48.408;9.968;2023-09-19T13:35:13;20.40;93.60
28071;DHT22;15383;48.408;9.968;2023-09-19T13:37:39;20.40;93.60
28071;DHT22;15383;48.408;9.968;2023-09-19T13:40:11;20.40;93.60
28071;DHT22;15383;48.408;9.968;2023-09-19T13:42:37;20.40;93.50
28071;DHT22;15383;48.408;9.968;2023-09-19T13:45:04;20.30;93.40
28071;DHT22;15383;48.408;9.968;2023-09-19T13:47:32;20.40;93.40
28071;DHT22;15383;48.408;9.968;2023-09-19T13:49:59;20.40;93.30
28071;DHT22;15383;48.408;9.968;2023-09-19T13:52:26;20.40;93.30
28071;DHT22;15383;48.408;9.968;2023-09-19T13:54:54;20.40;93.30
28071;DHT22;15383;48.408;9.968;2023-09-19T13:57:25;20.40;93.30
28071;DHT22;15383;48.408;9.968;2023-09-19T13:59:51;20.40;93.60
28071;DHT22;15383;48.408;9.968;2023-09-19T14:02:17;20.40;93.20
28071;DHT22;15383;48.408;9.968;2023-09-19T14:04:48;20.30;93.20
28071;DHT22;15383;48.408;9.968;2023-09-19T14:07:16;20.30;93.10
28071;DHT22;15383;48.408;9.968;2023-09-19T14:09:44;20.40;93.10
28071;DHT22;15383;48.408;9.968;2023-09-19T14:12:10;20.30;93.10
28071;DHT22;15383;48.408;9.968;2023-09-19T14:14:36;20.30;93.00
28071;DHT22;15383;48.408;9.968;2023-09-19T14:17:03;20.30;92.90
28071;DHT22;15383;48.408;9.968;2023-09-19T14:19:29;20.30;92.90
28071;DHT22;15383;48.408;9.968;2023-09-19T14:21:55;20.30;92.90
28071;DHT22;15383;48.408;9.968;2023-09-19T14:24:22;20.30;92.90
28071;DHT22;15383;48.408;9.968;2023-09-19T14:26:48;20.30;92.90
28071;DHT22;15383;48.408;9.968;2023-09-19T14:29:15;20.30;92.90
28071;DHT22;15383;48.408;9.968;2023-09-19T14:31:41;20.30;92.80
28071;DHT22;15383;48.408;9.968;2023-09-19T14:34:07;20.30;92.90
28071;DHT22;15383;48.408;9.968;2023-09-19T14:36:35;20.30;92.80
28071;DHT22;15383;48.408;9.968;2023-09-19T14:39:01;20.30;92.80
28071;DHT22;15383;48.408;9.968;2023-09-19T14:41:26;20.30;92.80
28071;DHT22;15383;48.408;9.968;2023-09-19T14:43:52;20.30;92.70
28071;DHT22;15383;48.408;9.968;2023-09-19T14:46:18;20.30;92.70
28071;DHT22;15383;48.408;9.968;2023-09-19T14:48:45;20.30;92.80
28071;DHT22;15383;48.408;9.968;2023-09-19T14:51:13;20.30;92.70
28071;DHT22;15383;48.408;9.968;2023-09-19T14:53:39;20.30;92.60
28071;DHT22;15383;48.408;9.968;2023-09-19T14:56:14;20.30;92.60
28071;DHT22;15383;48.408;9.968;2023-09-19T14:58:44;20.30;92.60
28071;DHT22;15383;48.408;9.968;2023-09-19T15:01:11;20.30;92.50
28071;DHT22;15383;48.408;9.968;2023-09-19T15:03:37;20.30;92.50
28071;DHT22;15383;48.408;9.968;2023-09-19T15:06:06;20.30;92.40
28071;DHT22;15383;48.408;9.968;2023-09-19T15:08:33;20.30;92.40
28071;DHT22;15383;48.408;9.968;2023-09-19T15:11:01;20.30;92.10
28071;DHT22;15383;48.408;9.968;2023-09-19T15:13:31;20.30;91.10
28071;DHT22;15383;48.408;9.968;2023-09-19T15:18:27;20.30;91.40
28071;DHT22;15383;48.408;9.968;2023-09-19T15:20:53;20.30;91.40
28071;DHT22;15383;48.408;9.968;2023-09-19T15:23:20;20.30;91.40
28071;DHT22;15383;48.408;9.968;2023-09-19T15:25:49;20.30;91.40
28071;DHT22;15383;48.408;9.968;2023-09-19T15:28:15;20.30;91.30
28071;DHT22;15383;48.408;9.968;2023-09-19T15:30:41;20.30;91.50
28071;DHT22;15383;48.408;9.968;2023-09-19T15:33:06;20.30;91.50
28071;DHT22;15383;48.408;9.968;2023-09-19T15:35:32;20.40;91.60
28071;DHT22;15383;48.408;9.968;2023-09-19T15:37:58;20.30;91.60
28071;DHT22;15383;48.408;9.968;2023-09-19T15:40:26;20.30;91.60
28071;DHT22;15383;48.408;9.968;2023-09-19T15:42:54;20.30;91.70
28071;DHT22;15383;48.408;9.968;2023-09-19T15:45:19;20.30;91.70
28071;DHT22;15383;48.408;9.968;2023-09-19T15:47:45;20.30;91.80
28071;DHT22;15383;48.408;9.968;2023-09-19T15:50:11;20.30;91.80
28071;DHT22;15383;48.408;9.968;2023-09-19T15:52:40;20.30;91.80
28071;DHT22;15383;48.408;9.968;2023-09-19T15:55:06;20.30;91.80
28071;DHT22;15383;48.408;9.968;2023-09-19T15:57:34;20.30;91.80
28071;DHT22;15383;48.408;9.968;2023-09-19T15:59:59;20.30;91.80
28071;DHT22;15383;48.408;9.968;2023-09-19T16:02:25;20.30;91.90
28071;DHT22;15383;48.408;9.968;2023-09-19T16:04:54;20.30;91.90
28071;DHT22;15383;48.408;9.968;2023-09-19T16:07:19;20.30;92.00
28071;DHT22;15383;48.408;9.968;2023-09-19T16:09:45;20.30;92.00
28071;DHT22;15383;48.408;9.968;2023-09-19T16:12:10;20.30;92.00
28071;DHT22;15383;48.408;9.968;2023-09-19T16:14:37;20.30;92.30
28071;DHT22;15383;48.408;9.968;2023-09-19T16:17:03;20.30;92.00
28071;DHT22;15383;48.408;9.968;2023-09-19T16:19:28;20.30;92.00
28071;DHT22;15383;48.408;9.968;2023-09-19T16:21:54;20.30;92.40
28071;DHT22;15383;48.408;9.968;2023-09-19T16:24:21;20.30;92.10
28071;DHT22;15383;48.408;9.968;2023-09-19T16:26:47;20.30;92.10
28071;DHT22;15383;48.408;9.968;2023-09-19T16:29:14;20.30;92.10
28071;DHT22;15383;48.408;9.968;2023-09-19T16:31:40;20.30;92.00
28071;DHT22;15383;48.408;9.968;2023-09-19T16:34:06;20.30;92.00
28071;DHT22;15383;48.408;9.968;2023-09-19T16:36:32;20.30;92.00
28071;DHT22;15383;48.408;9.968;2023-09-19T16:38:59;20.30;92.00
28071;DHT22;15383;48.408;9.968;2023-09-19T16:41:25;20.30;92.00
28071;DHT22;15383;48.408;9.968;2023-09-19T16:43:51;20.30;92.00
28071;DHT22;15383;48.408;9.968;2023-09-19T16:46:17;20.30;92.00
28071;DHT22;15383;48.408;9.968;2023-09-19T16:48:47;20.30;92.00
28071;DHT22;15383;48.408;9.968;2023-09-19T16:51:14;20.30;92.00
28071;DHT22;15383;48.408;9.968;2023-09-19T16:53:41;20.20;92.00
28071;DHT22;15383;48.408;9.968;2023-09-19T16:56:14;20.30;92.10
28071;DHT22;15383;48.408;9.968;2023-09-19T16:58:44;20.30;92.10
28071;DHT22;15383;48.408;9.968;2023-09-19T17:01:11;20.30;92.10
28071;DHT22;15383;48.408;9.968;2023-09-19T17:03:39;20.20;92.10
28071;DHT22;15383;48.408;9.968;2023-09-19T17:06:09;20.30;92.10
28071;DHT22;15383;48.408;9.968;2023-09-19T17:08:37;20.30;92.10
28071;DHT22;15383;48.408;9.968;2023-09-19T17:11:04;20.20;92.10
28071;DHT22;15383;48.408;9.968;2023-09-19T17:13:31;20.30;92.10
28071;DHT22;15383;48.408;9.968;2023-09-19T17:16:09;20.30;92.20
28071;DHT22;15383;48.408;9.968;2023-09-19T17:18:37;20.20;92.10
28071;DHT22;15383;48.408;9.968;2023-09-19T17:21:04;20.20;92.20
28071;DHT22;15383;48.408;9.968;2023-09-19T17:23:32;20.20;92.20
28071;DHT22;15383;48.408;9.968;2023-09-19T17:28:33;20.20;92.20
28071;DHT22;15383;48.408;9.968;2023-09-19T17:31:00;20.20;92.20
28071;DHT22;15383;48.408;9.968;2023-09-19T17:33:27;20.20;92.20
28071;DHT22;15383;48.408;9.968;2023-09-19T17:36:17;20.20;92.30
28071;DHT22;15383;48.408;9.968;2023-09-19T17:38:44;20.20;92.30
28071;DHT22;15383;48.408;9.968;2023-09-19T17:41:10;20.20;92.30
28071;DHT22;15383;48.408;9.968;2023-09-19T17:43:40;20.20;92.30
28071;DHT22;15383;48.408;9.968;2023-09-19T17:46:13;20.20;92.30
28071;DHT22;15383;48.408;9.968;2023-09-19T17:48:41;20.20;92.30
28071;DHT22;15383;48.408;9.968;2023-09-19T17:51:07;20.20;92.30
28071;DHT22;15383;48.408;9.968;2023-09-19T17:53:35;20.20;92.30
28071;DHT22;15383;48.408;9.968;2023-09-19T17:56:05;20.20;92.30
28071;DHT22;15383;48.408;9.968;2023-09-19T17:58:31;20.20;92.30
28071;DHT22;15383;48.408;9.968;2023-09-19T18:01:16;20.20;92.30
28071;DHT22;15383;48.408;9.968;2023-09-19T18:03:43;20.20;92.30
28071;DHT22;15383;48.408;9.968;2023-09-19T18:06:12;20.20;92.30
28071;DHT22;15383;48.408;9.968;2023-09-19T18:08:39;20.20;92.30
28071;DHT22;15383;48.408;9.968;2023-09-19T18:11:05;20.20;92.30
28071;DHT22;15383;48.408;9.968;2023-09-19T18:13:40;20.20;92.30
28071;DHT22;15383;48.408;9.968;2023-09-19T18:16:09;20.20;92.30
28071;DHT22;15383;48.408;9.968;2023-09-19T18:18:35;20.20;92.30
28071;DHT22;15383;48.408;9.968;2023-09-19T18:21:01;20.20;92.30
28071;DHT22;15383;48.408;9.968;2023-09-19T18:23:27;20.20;92.30
28071;DHT22;15383;48.408;9.968;2023-09-19T18:26:00;20.20;92.30
28071;DHT22;15383;48.408;9.968;2023-09-19T18:28:26;20.20;92.30
28071;DHT22;15383;48.408;9.968;2023-09-19T18:30:52;20.20;92.30
28071;DHT22;15383;48.408;9.968;2023-09-19T18:33:18;20.20;92.30
28071;DHT22;15383;48.408;9.968;2023-09-19T18:35:44;20.20;92.30
28071;DHT22;15383;48.408;9.968;2023-09-19T18:38:10;20.20;92.30
28071;DHT22;15383;48.408;9.968;2023-09-19T18:40:36;20.20;92.30
28071;DHT22;15383;48.408;9.968;2023-09-19T18:43:03;20.20;92.30
28071;DHT22;15383;48.408;9.968;2023-09-19T18:45:29;20.20;92.30
28071;DHT22;15383;48.408;9.968;2023-09-19T18:47:55;20.20;92.30
28071;DHT22;15383;48.408;9.968;2023-09-19T18:50:20;20.20;92.30
28071;DHT22;15383;48.408;9.968;2023-09-19T18:52:48;20.20;92.30
28071;DHT22;15383;48.408;9.968;2023-09-19T18:55:16;20.20;92.30
28071;DHT22;15383;48.408;9.968;2023-09-19T18:57:43;20.20;92.30
28071;DHT22;15383;48.408;9.968;2023-09-19T19:00:09;20.20;92.30
28071;DHT22;15383;48.408;9.968;2023-09-19T19:02:38;20.20;92.30
28071;DHT22;15383;48.408;9.968;2023-09-19T19:05:05;20.20;92.30
28071;DHT22;15383;48.408;9.968;2023-09-19T19:07:31;20.20;92.20
28071;DHT22;15383;48.408;9.968;2023-09-19T19:09:56;20.20;92.30
28071;DHT22;15383;48.408;9.968;2023-09-19T19:12:22;20.20;92.20
28071;DHT22;15383;48.408;9.968;2023-09-19T19:14:48;20.20;92.20
28071;DHT22;15383;48.408;9.968;2023-09-19T19:17:17;20.20;92.20
28071;DHT22;15383;48.408;9.968;2023-09-19T19:19:43;20.20;92.20
28071;DHT22;15383;48.408;9.968;2023-09-19T19:22:09;20.20;92.20